createdAt,value
2022-11-13T00:02:40.731Z,14.53
2022-11-13T00:05:46.815Z,17.93
2022-11-13T00:08:55.905Z,14.77
2022-11-13T00:12:02.134Z,22.83
2022-11-13T00:15:08.693Z,11.90
2022-11-13T00:18:16.083Z,19.80
2022-11-13T00:21:25.153Z,18.50
2022-11-13T00:24:31.034Z,19.07
2022-11-13T00:27:37.350Z,18.70
2022-11-13T00:30:43.344Z,11.10
2022-11-13T00:37:17.574Z,12.70
2022-11-13T00:40:23.506Z,10.77
2022-11-13T00:43:29.663Z,18.90
2022-11-13T00:46:35.954Z,15.40
2022-11-13T00:49:43.379Z,15.57
2022-11-13T00:52:49.621Z,10.73
2022-11-13T00:55:55.697Z,18.33
2022-11-13T00:59:01.829Z,20.67
2022-11-13T01:02:07.907Z,11.20
2022-11-13T01:05:15.523Z,22.00
2022-11-13T01:08:21.670Z,17.07
2022-11-13T01:11:30.485Z,12.50
2022-11-13T01:14:36.966Z,15.40
2022-11-13T01:17:43.237Z,11.43
2022-11-13T01:20:50.817Z,12.53
2022-11-13T01:23:57.600Z,13.47
2022-11-13T01:27:03.879Z,12.77
2022-11-13T01:30:10.978Z,11.53
2022-11-13T01:33:16.900Z,19.40
2022-11-13T01:36:26.683Z,13.27
2022-11-13T01:39:33.347Z,14.60
2022-11-13T01:42:39.474Z,14.10
2022-11-13T01:46:14.718Z,16.03
2022-11-13T01:49:32.266Z,7.70
2022-11-13T01:52:44.048Z,11.03
2022-11-13T01:55:50.451Z,15.73
2022-11-13T01:59:00.416Z,11.03
2022-11-13T02:02:06.723Z,11.60
2022-11-13T02:05:13.214Z,13.60
2022-11-13T02:08:21.037Z,13.37
2022-11-13T02:11:27.200Z,14.37
2022-11-13T02:14:33.808Z,15.40
2022-11-13T02:17:44.221Z,10.07
2022-11-13T02:20:57.721Z,9.93
2022-11-13T02:24:17.541Z,11.50
2022-11-13T02:27:30.459Z,8.17
2022-11-13T02:30:37.824Z,10.10
2022-11-13T02:33:43.927Z,8.80
2022-11-13T02:36:50.294Z,8.10
2022-11-13T02:39:57.597Z,10.07
2022-11-13T02:43:03.842Z,9.67
2022-11-13T02:46:10.157Z,11.57
2022-11-13T02:49:16.156Z,11.43
2022-11-13T02:52:22.262Z,8.93
2022-11-13T02:55:29.876Z,9.40
2022-11-13T02:58:36.203Z,13.27
2022-11-13T03:01:42.404Z,8.87
2022-11-13T03:05:11.471Z,6.53
2022-11-13T03:08:14.734Z,10.43
2022-11-13T03:11:22.605Z,10.37
2022-11-13T03:14:28.932Z,9.67
2022-11-13T03:17:35.568Z,8.00
2022-11-13T03:20:43.924Z,6.77
2022-11-13T03:23:50.255Z,14.63
2022-11-13T03:26:57.755Z,11.83
2022-11-13T03:30:04.050Z,8.80
2022-11-13T03:33:10.168Z,6.47
2022-11-13T03:36:16.659Z,9.07
2022-11-13T03:39:23.159Z,8.03
2022-11-13T03:42:30.778Z,16.53
2022-11-13T03:45:37.252Z,12.90
2022-11-13T03:48:43.384Z,18.33
2022-11-13T03:51:49.360Z,12.60
2022-11-13T03:54:55.193Z,34.37
2022-11-13T03:58:02.745Z,20.63
2022-11-13T04:01:08.825Z,12.10
2022-11-13T04:04:15.626Z,35.53
2022-11-13T04:07:21.654Z,15.60
2022-11-13T04:10:28.166Z,21.37
2022-11-13T04:13:35.879Z,25.77
2022-11-13T04:16:41.968Z,58.07
2022-11-13T04:19:48.166Z,58.07
2022-11-13T04:22:54.141Z,40.13
2022-11-13T04:26:00.556Z,37.53
2022-11-13T04:29:08.428Z,24.90
2022-11-13T04:32:14.541Z,17.60
2022-11-13T04:35:20.614Z,14.50
2022-11-13T04:38:26.805Z,11.70
2022-11-13T04:41:55.173Z,13.30
2022-11-13T04:45:03.193Z,12.13
2022-11-13T04:48:09.652Z,24.53
2022-11-13T04:51:15.758Z,33.17
2022-11-13T04:54:27.369Z,28.17
2022-11-13T04:57:34.876Z,19.20
2022-11-13T05:00:42.309Z,25.97
2022-11-13T05:03:48.460Z,9.27
2022-11-13T05:06:54.741Z,27.27
2022-11-13T05:10:01.049Z,60.67
2022-11-13T05:13:07.137Z,47.13
2022-11-13T05:16:16.150Z,35.80
2022-11-13T05:19:22.478Z,19.47
2022-11-13T05:22:28.637Z,14.13
2022-11-13T05:25:34.574Z,23.97
2022-11-13T05:28:40.996Z,21.37
2022-11-13T05:31:48.821Z,29.90
2022-11-13T05:34:54.889Z,30.73
2022-11-13T05:38:02.119Z,31.27
2022-11-13T05:41:10.270Z,33.50
2022-11-13T05:44:16.358Z,34.03
2022-11-13T05:47:23.783Z,48.73
2022-11-13T05:50:30.074Z,45.27
2022-11-13T05:53:36.942Z,47.03
2022-11-13T05:56:43.229Z,93.57
2022-11-13T05:59:49.185Z,57.67
2022-11-13T06:02:56.605Z,28.13
2022-11-13T06:06:03.021Z,33.13
2022-11-13T06:09:09.505Z,43.90
2022-11-13T06:12:15.611Z,44.47
2022-11-13T06:15:21.801Z,33.27
2022-11-13T06:18:29.732Z,39.60
2022-11-13T06:21:38.916Z,54.23
2022-11-13T06:24:45.124Z,36.43
2022-11-13T06:27:51.167Z,35.47
2022-11-13T06:30:57.270Z,36.23
2022-11-13T06:34:06.135Z,35.37
2022-11-13T06:37:12.317Z,24.67
2022-11-13T06:40:18.534Z,28.03
2022-11-13T06:43:24.521Z,36.63
2022-11-13T06:46:31.101Z,35.73
2022-11-13T06:49:38.707Z,33.80
2022-11-13T06:52:44.990Z,35.57
2022-11-13T06:55:52.147Z,22.43
2022-11-13T06:58:58.533Z,21.17
2022-11-13T07:02:04.780Z,16.30
2022-11-13T07:05:12.501Z,21.73
2022-11-13T07:08:19.699Z,20.00
2022-11-13T07:11:25.779Z,43.37
2022-11-13T07:14:32.202Z,45.77
2022-11-13T07:17:38.250Z,62.93
2022-11-13T07:20:46.163Z,65.70
2022-11-13T07:23:52.887Z,52.50
2022-11-13T07:26:59.491Z,54.47
2022-11-13T07:30:07.530Z,58.30
2022-11-13T07:33:13.894Z,45.70
2022-11-13T07:36:21.679Z,57.63
2022-11-13T07:39:28.049Z,52.27
2022-11-13T07:42:34.446Z,37.03
2022-11-13T07:45:40.844Z,47.30
2022-11-13T07:48:46.890Z,40.33
2022-11-13T07:51:54.297Z,40.17
2022-11-13T07:55:00.623Z,35.13
2022-11-13T07:58:07.158Z,37.03
2022-11-13T08:01:13.377Z,24.83
2022-11-13T08:04:19.709Z,15.50
2022-11-13T08:07:27.296Z,13.57
2022-11-13T08:10:33.991Z,11.20
2022-11-13T08:13:40.252Z,9.50
2022-11-13T08:16:46.402Z,7.50
2022-11-13T08:19:52.694Z,8.73
2022-11-13T08:23:01.192Z,9.50
2022-11-13T08:26:07.917Z,5.53
2022-11-13T08:29:14.373Z,12.97
2022-11-13T08:32:22.661Z,7.10
2022-11-13T08:35:29.718Z,9.23
2022-11-13T08:38:37.528Z,5.20
2022-11-13T08:41:44.062Z,8.03
2022-11-13T08:44:50.360Z,5.43
2022-11-13T08:48:00.013Z,7.77
2022-11-13T08:51:06.649Z,6.43
2022-11-13T08:54:14.537Z,8.37
2022-11-13T08:57:20.791Z,6.77
2022-11-13T09:00:27.561Z,7.30
2022-11-13T09:03:36.342Z,8.13
2022-11-13T09:06:43.012Z,8.30
2022-11-13T09:09:50.923Z,6.20
2022-11-13T09:12:59.271Z,6.83
2022-11-13T09:16:06.062Z,6.43
2022-11-13T09:19:12.302Z,8.07
2022-11-13T09:22:18.402Z,12.00
2022-11-13T09:25:26.405Z,7.57
2022-11-13T09:28:32.805Z,17.23
2022-11-13T09:31:41.284Z,10.70
2022-11-13T09:34:47.727Z,13.17
2022-11-13T09:37:53.738Z,13.17
2022-11-13T09:41:06.961Z,8.80
2022-11-13T09:44:17.410Z,6.53
2022-11-13T09:47:29.193Z,10.97
2022-11-13T09:50:35.589Z,8.23
2022-11-13T09:53:42.892Z,7.60
2022-11-13T09:56:58.133Z,8.50
2022-11-13T10:00:12.014Z,8.63
2022-11-13T10:04:00.733Z,9.17
2022-11-13T10:07:06.889Z,9.90
2022-11-13T10:10:33.433Z,8.80
2022-11-13T10:13:47.091Z,11.33
2022-11-13T10:16:58.512Z,10.87
2022-11-13T10:20:09.671Z,9.93
2022-11-13T10:23:20.584Z,25.97
2022-11-13T10:26:30.016Z,10.83
2022-11-13T10:29:38.281Z,11.17
2022-11-13T10:32:45.571Z,11.50
2022-11-13T10:35:58.375Z,10.53
2022-11-13T10:39:07.552Z,12.17
2022-11-13T10:42:23.484Z,11.23
2022-11-13T10:45:31.361Z,14.57
2022-11-13T10:48:38.233Z,12.67
2022-11-13T10:51:44.896Z,11.83
2022-11-13T10:54:51.893Z,8.60
2022-11-13T10:58:00.050Z,7.90
2022-11-13T11:01:17.143Z,9.73
2022-11-13T11:04:27.431Z,7.23
2022-11-13T11:07:41.648Z,8.50
2022-11-13T11:11:15.893Z,7.67
2022-11-13T11:14:28.163Z,10.67
2022-11-13T11:17:43.685Z,8.33
2022-11-13T11:20:56.157Z,5.80
2022-11-13T11:24:13.623Z,8.50
2022-11-13T11:27:24.165Z,11.50
2022-11-13T11:30:36.728Z,9.13
2022-11-13T11:33:51.592Z,9.50
2022-11-13T11:37:05.261Z,12.77
2022-11-13T11:40:23.178Z,9.33
2022-11-13T11:43:39.165Z,9.03
2022-11-13T11:46:46.860Z,11.30
2022-11-13T11:49:55.734Z,6.10
2022-11-13T11:53:07.564Z,5.90
2022-11-13T11:56:24.773Z,6.30
2022-11-13T11:59:51.409Z,10.27
2022-11-13T12:03:11.695Z,9.57
2022-11-13T12:06:29.144Z,10.80
2022-11-13T12:09:40.092Z,9.97
2022-11-13T12:13:12.474Z,6.93
2022-11-13T12:16:28.472Z,15.37
2022-11-13T12:19:53.228Z,7.27
2022-11-13T12:23:12.174Z,17.53
2022-11-13T12:26:24.465Z,8.97
2022-11-13T12:29:46.606Z,15.63
2022-11-13T12:33:17.523Z,14.53
2022-11-13T12:36:24.934Z,17.33
2022-11-13T12:39:40.935Z,47.77
2022-11-13T12:42:51.555Z,39.83
2022-11-13T12:46:01.203Z,32.13
2022-11-13T12:49:27.147Z,18.97
2022-11-13T12:52:33.583Z,12.93
2022-11-13T12:55:42.381Z,12.63
2022-11-13T12:59:23.609Z,13.37
2022-11-13T13:02:40.563Z,10.13
2022-11-13T13:06:03.877Z,6.37
2022-11-13T13:09:39.370Z,9.87
2022-11-13T13:12:56.330Z,7.23
2022-11-13T13:16:05.712Z,7.60
2022-11-13T13:19:26.522Z,8.10
2022-11-13T13:22:35.365Z,6.87
2022-11-13T13:25:42.413Z,14.70
2022-11-13T13:28:52.551Z,10.27
2022-11-13T13:32:11.726Z,22.43
2022-11-13T13:35:25.193Z,19.93
2022-11-13T13:38:39.308Z,34.23
2022-11-13T13:42:01.659Z,30.57
2022-11-13T13:45:25.296Z,14.43
2022-11-13T13:48:33.184Z,17.13
2022-11-13T13:51:44.226Z,13.13
2022-11-13T13:54:50.651Z,11.37
2022-11-13T13:57:59.347Z,16.07
2022-11-13T14:01:20.227Z,24.40
2022-11-13T14:04:29.587Z,24.40
2022-11-13T14:07:35.973Z,16.97
2022-11-13T14:10:42.325Z,31.93
2022-11-13T14:13:48.361Z,22.23
2022-11-13T14:16:57.851Z,15.27
2022-11-13T14:20:04.602Z,12.57
2022-11-13T14:23:14.209Z,14.37
2022-11-13T14:26:21.921Z,29.83
2022-11-13T14:29:36.272Z,21.17
2022-11-13T14:32:47.173Z,34.70
2022-11-13T14:35:56.953Z,51.20
2022-11-13T14:39:04.216Z,59.10
2022-11-13T14:42:19.778Z,47.97
2022-11-13T14:45:27.807Z,46.53
2022-11-13T14:48:36.361Z,35.73
2022-11-13T14:51:43.185Z,30.00
2022-11-13T14:55:16.148Z,25.83
2022-11-13T14:58:15.953Z,13.80
2022-11-13T15:01:25.079Z,12.90
2022-11-13T15:04:37.838Z,61.50
2022-11-13T15:07:47.263Z,17.70
2022-11-13T15:10:53.926Z,19.80
2022-11-13T15:14:04.167Z,22.37
2022-11-13T15:17:16.963Z,41.87
2022-11-13T15:20:27.889Z,34.37
2022-11-13T15:23:35.117Z,26.10
2022-11-13T15:26:41.653Z,27.80
2022-11-13T15:29:48.261Z,30.70
2022-11-13T15:32:56.642Z,18.50
2022-11-13T15:36:04.786Z,20.37
2022-11-13T15:39:18.520Z,31.93
2022-11-13T15:42:33.049Z,43.30
2022-11-13T15:45:43.997Z,43.43
2022-11-13T15:48:51.298Z,57.73
2022-11-13T15:51:59.252Z,67.00
2022-11-13T15:55:14.393Z,67.27
2022-11-13T15:58:20.920Z,58.50
2022-11-13T16:01:27.253Z,87.33
2022-11-13T16:04:54.598Z,74.43
2022-11-13T16:08:01.252Z,89.90
2022-11-13T16:11:07.727Z,91.40
2022-11-13T16:14:14.010Z,71.27
2022-11-13T16:17:21.192Z,70.23
2022-11-13T16:20:27.051Z,68.57
2022-11-13T16:23:49.028Z,56.13
2022-11-13T16:26:58.629Z,68.20
2022-11-13T16:30:07.112Z,52.33
2022-11-13T16:33:14.053Z,61.53
2022-11-13T16:36:22.612Z,78.77
2022-11-13T16:39:30.182Z,80.87
2022-11-13T16:42:36.231Z,85.30
2022-11-13T16:45:42.289Z,92.60
2022-11-13T16:48:48.962Z,88.27
2022-11-13T16:51:55.279Z,85.73
2022-11-13T16:55:06.564Z,83.83
2022-11-13T16:58:14.906Z,77.57
2022-11-13T17:01:22.501Z,79.33
2022-11-13T17:04:29.015Z,82.40
2022-11-13T17:07:35.183Z,54.50
2022-11-13T17:10:42.884Z,83.30
2022-11-13T17:13:51.010Z,44.03
2022-11-13T17:16:57.270Z,114.00
2022-11-13T17:20:03.241Z,108.00
2022-11-13T17:23:15.198Z,156.40
2022-11-13T17:26:22.775Z,49.83
2022-11-13T17:29:29.011Z,47.10
2022-11-13T17:32:35.007Z,46.23
2022-11-13T17:35:41.064Z,60.30
2022-11-13T17:38:47.065Z,52.33
2022-11-13T17:41:54.728Z,63.63
2022-11-13T17:45:00.670Z,69.93
2022-11-13T17:48:06.864Z,59.47
2022-11-13T17:51:14.936Z,58.33
2022-11-13T17:54:21.128Z,58.57
2022-11-13T17:57:28.676Z,60.90
2022-11-13T18:00:35.257Z,89.97
2022-11-13T18:03:41.986Z,92.70
2022-11-13T18:06:48.045Z,93.77
2022-11-13T18:09:54.523Z,79.20
2022-11-13T18:13:02.222Z,47.30
2022-11-13T18:16:12.946Z,34.63
2022-11-13T18:19:19.639Z,49.37
2022-11-13T18:22:26.031Z,62.13
2022-11-13T18:25:35.456Z,85.70
2022-11-13T18:28:45.949Z,74.37
2022-11-13T18:31:52.269Z,66.10
2022-11-13T18:34:58.601Z,56.83
2022-11-13T18:38:04.725Z,60.77
2022-11-13T18:41:13.943Z,63.87
2022-11-13T18:44:21.593Z,73.97
2022-11-13T18:47:27.988Z,182.03
2022-11-13T18:50:34.123Z,134.57
2022-11-13T18:53:40.606Z,157.40
2022-11-13T18:56:48.257Z,256.67
2022-11-13T18:59:56.078Z,186.33
2022-11-13T19:03:04.150Z,135.57
2022-11-13T19:06:12.861Z,66.20
2022-11-13T19:09:19.495Z,58.97
2022-11-13T19:12:25.765Z,51.80
2022-11-13T19:15:34.380Z,56.87
2022-11-13T19:18:43.146Z,44.30
2022-11-13T19:21:50.094Z,56.43
2022-11-13T19:24:56.782Z,55.37
2022-11-13T19:28:03.518Z,54.10
2022-11-13T19:31:14.087Z,34.57
2022-11-13T19:34:20.360Z,34.30
2022-11-13T19:37:26.529Z,49.60
2022-11-13T19:40:32.482Z,49.07
2022-11-13T19:43:41.200Z,53.97
2022-11-13T19:46:50.665Z,76.57
2022-11-13T19:49:57.018Z,60.93
2022-11-13T19:53:03.398Z,30.93
2022-11-13T19:56:09.971Z,30.57
2022-11-13T19:59:16.390Z,48.77
2022-11-13T20:02:24.342Z,73.93
2022-11-13T20:05:30.590Z,100.17
2022-11-13T20:08:37.597Z,77.47
2022-11-13T20:11:45.280Z,85.37
2022-11-13T20:14:52.330Z,75.67
2022-11-13T20:17:59.945Z,72.67
2022-11-13T20:21:07.400Z,72.77
2022-11-13T20:24:13.916Z,63.17
2022-11-13T20:27:20.114Z,84.80
2022-11-13T20:30:26.239Z,32.77
2022-11-13T20:33:34.754Z,22.47
2022-11-13T20:36:40.750Z,30.33
2022-11-13T20:39:46.777Z,12.63
2022-11-13T20:42:52.748Z,28.47
2022-11-13T20:46:03.395Z,24.33
2022-11-13T20:49:10.864Z,53.93
2022-11-13T20:52:17.013Z,51.53
2022-11-13T20:55:23.099Z,42.47
2022-11-13T20:58:29.215Z,30.73
2022-11-13T21:01:37.201Z,33.67
2022-11-13T21:04:44.652Z,50.03
2022-11-13T21:07:51.028Z,36.40
2022-11-13T21:10:56.917Z,38.87
2022-11-13T21:14:03.090Z,22.93
2022-11-13T21:17:09.238Z,29.67
2022-11-13T21:20:17.034Z,28.90
2022-11-13T21:23:23.365Z,29.33
2022-11-13T21:26:29.730Z,33.43
2022-11-13T21:29:36.018Z,29.27
2022-11-13T21:32:42.706Z,51.10
2022-11-13T21:35:50.415Z,75.00
2022-11-13T21:38:57.791Z,77.40
2022-11-13T21:42:04.250Z,81.17
2022-11-13T21:45:11.189Z,69.00
2022-11-13T21:48:17.232Z,85.63
2022-11-13T21:51:24.735Z,52.13
2022-11-13T21:54:31.039Z,52.83
2022-11-13T21:57:37.133Z,27.93
2022-11-13T22:00:43.147Z,39.07
2022-11-13T22:03:49.683Z,34.43
2022-11-13T22:06:57.496Z,37.77
2022-11-13T22:10:08.143Z,30.43
2022-11-13T22:13:15.057Z,33.33
2022-11-13T22:16:22.012Z,33.00
2022-11-13T22:19:33.483Z,32.40
2022-11-13T22:22:43.894Z,35.27
2022-11-13T22:25:52.466Z,18.37
2022-11-13T22:29:02.909Z,20.77
2022-11-13T22:32:09.510Z,32.83
2022-11-13T22:35:16.320Z,27.03
2022-11-13T22:38:24.303Z,21.40
2022-11-13T22:41:33.182Z,12.30
2022-11-13T22:44:54.954Z,22.73
2022-11-13T22:48:03.005Z,30.40
2022-11-13T22:51:11.718Z,28.00
2022-11-13T22:54:19.520Z,29.20
2022-11-13T22:57:25.606Z,28.17
2022-11-13T23:00:31.961Z,29.63
2022-11-13T23:03:39.619Z,31.83
2022-11-13T23:06:45.935Z,26.77
2022-11-13T23:09:53.843Z,29.53
2022-11-13T23:12:59.903Z,27.00
2022-11-13T23:16:06.615Z,22.37
2022-11-13T23:19:13.192Z,20.87
2022-11-13T23:22:19.449Z,22.63
2022-11-13T23:25:27.154Z,18.30
2022-11-13T23:28:33.435Z,17.77
2022-11-13T23:31:39.254Z,20.57
2022-11-13T23:35:00.603Z,16.33
2022-11-13T23:38:07.170Z,11.17
2022-11-13T23:41:15.239Z,15.40
2022-11-13T23:44:21.275Z,14.03
2022-11-13T23:47:27.702Z,19.40
2022-11-13T23:50:34.035Z,12.33
2022-11-13T23:53:40.345Z,18.43
2022-11-13T23:56:47.980Z,17.33
2022-11-13T23:59:54.537Z,22.57
